Alexander, Illinois
Current Conditions -  °F | °C
As of 7:15 AM on Wednesday 22 Oct 2014 (Local Time) from KIJX Reporting Station
Haze Haze  
Wind Chill: 32°   Ceiling: Unl
Heat Index: 36°   Visibility: 5mi
Dew Point: 34°   Wind: 5mph
Humidity: 93%   Direction: 80°E
Pressure: 30.31"   Gusts: NA
Location:  39.72°N, 90.04°W
Report Text: KIJX 221215Z AUTO 08004KT 5SM BR CLR 02/01 A3031 RMK AO2 T00200010
Loading
Personal Weather Stations






























Interactive Weather Map
Tropical Storm Tracking
New forecast layout! Learn more

10-Day Weather Forecast

Advertisements
Track Severe Weather on mobile